createdAt,value
2023-05-04T00:01:25.841Z,9.8
2023-05-04T00:06:26.517Z,7.7
2023-05-04T00:08:16.593Z,7.8
2023-05-04T00:13:17.234Z,9.7
2023-05-04T00:18:17.816Z,10.2
2023-05-04T00:23:18.477Z,11.3
2023-05-04T00:28:19.174Z,8.5
2023-05-04T00:33:19.912Z,7.6
2023-05-04T00:38:20.593Z,8.9
2023-05-04T00:43:21.131Z,7.5
2023-05-04T00:48:21.862Z,7.3
2023-05-04T00:53:22.503Z,9.3
2023-05-04T00:58:23.109Z,7.9
2023-05-04T01:03:23.858Z,7.6
2023-05-04T01:08:24.623Z,7.5
2023-05-04T01:13:25.191Z,7.4
2023-05-04T01:18:25.904Z,8.5
2023-05-04T01:23:26.612Z,8.4
2023-05-04T01:28:27.193Z,8.1
2023-05-04T01:33:27.966Z,8.4
2023-05-04T01:38:28.893Z,9.8
2023-05-04T01:43:29.172Z,6.2
2023-05-04T01:48:30.002Z,6.1
2023-05-04T01:53:30.591Z,5.4
2023-05-04T01:58:31.090Z,7.2
2023-05-04T02:03:32.012Z,6.6
2023-05-04T02:08:32.545Z,6.7
2023-05-04T02:13:33.041Z,5.3
2023-05-04T02:18:33.774Z,5.7
2023-05-04T02:23:34.488Z,5.8
2023-05-04T02:28:35.049Z,5.5
2023-05-04T02:33:35.748Z,5.0
2023-05-04T02:38:36.714Z,6.0
2023-05-04T02:43:36.980Z,4.7
2023-05-04T02:48:37.674Z,6.4
2023-05-04T02:53:38.405Z,4.5
2023-05-04T02:58:38.885Z,5.2
2023-05-04T03:03:39.672Z,5.7
2023-05-04T03:08:40.315Z,4.9
2023-05-04T03:13:40.856Z,3.9
2023-05-04T03:18:57.289Z,4.6
2023-05-04T03:23:42.129Z,4.6
2023-05-04T03:28:42.790Z,5.5
2023-05-04T03:33:43.424Z,5.9
2023-05-04T03:38:44.339Z,4.8
2023-05-04T03:43:44.614Z,5.3
2023-05-04T03:48:45.328Z,4.7
2023-05-04T03:53:45.861Z,3.7
2023-05-04T03:58:46.569Z,4.9
2023-05-04T04:03:47.277Z,4.7
2023-05-04T04:08:47.824Z,5.9
2023-05-04T04:13:48.354Z,6.8
2023-05-04T04:18:48.913Z,5.1
2023-05-04T04:23:49.701Z,4.7
2023-05-04T04:28:50.132Z,4.9
2023-05-04T04:33:50.823Z,3.7
2023-05-04T04:38:51.522Z,3.6
2023-05-04T04:43:51.960Z,4.6
2023-05-04T04:48:52.681Z,4.6
2023-05-04T04:53:53.344Z,4.3
2023-05-04T04:58:53.885Z,4.9
2023-05-04T05:03:54.581Z,4.7
2023-05-04T05:08:55.309Z,5.9
2023-05-04T05:13:55.783Z,4.9
2023-05-04T05:18:56.454Z,5.8
2023-05-04T05:23:57.103Z,6.3
2023-05-04T05:28:57.641Z,5.2
2023-05-04T05:33:58.272Z,5.0
2023-05-04T05:38:59.012Z,9.7
2023-05-04T05:43:59.536Z,6.4
2023-05-04T05:49:00.173Z,8.2
2023-05-04T05:54:00.819Z,6.8
2023-05-04T05:59:01.351Z,5.9
2023-05-04T06:04:02.192Z,4.8
2023-05-04T06:09:02.738Z,6.5
2023-05-04T06:14:03.310Z,7.5
2023-05-04T06:19:03.863Z,6.8
2023-05-04T06:24:04.755Z,9.4
2023-05-04T06:29:05.147Z,7.0
2023-05-04T06:34:05.776Z,7.5
2023-05-04T06:39:06.728Z,6.3
2023-05-04T06:44:06.904Z,9.0
2023-05-04T06:49:07.545Z,8.4
2023-05-04T06:54:08.128Z,8.0
2023-05-04T06:59:08.697Z,9.3
2023-05-04T07:04:10.414Z,9.8
2023-05-04T07:09:10.212Z,10.7
2023-05-04T07:14:10.649Z,13.5
2023-05-04T07:19:11.109Z,11.6
2023-05-04T07:24:11.868Z,11.8
2023-05-04T07:29:12.337Z,8.6
2023-05-04T07:34:12.894Z,10.2
2023-05-04T07:39:13.810Z,9.3
2023-05-04T07:44:14.103Z,11.6
2023-05-04T07:49:14.799Z,10.7
2023-05-04T07:54:15.436Z,10.4
2023-05-04T07:59:15.947Z,11.2
2023-05-04T08:04:16.572Z,6.0
2023-05-04T08:09:17.194Z,7.3
2023-05-04T08:14:17.796Z,6.8
2023-05-04T08:19:18.347Z,6.5
2023-05-04T08:24:25.790Z,7.0
2023-05-04T08:29:19.632Z,6.8
2023-05-04T08:34:20.138Z,5.3
2023-05-04T08:39:21.364Z,6.7
2023-05-04T08:44:21.266Z,7.9
2023-05-04T08:49:21.880Z,7.2
2023-05-04T08:54:22.537Z,7.8
2023-05-04T08:59:23.092Z,8.4
2023-05-04T09:04:23.822Z,7.7
2023-05-04T09:09:24.460Z,7.6
2023-05-04T09:14:24.926Z,5.5
2023-05-04T09:19:25.628Z,5.8
2023-05-04T09:24:26.238Z,7.1
2023-05-04T09:29:26.978Z,7.1
2023-05-04T09:34:27.518Z,7.6
2023-05-04T09:39:28.622Z,7.9
2023-05-04T09:44:29.769Z,13.1
2023-05-04T09:49:29.179Z,7.3
2023-05-04T09:54:29.842Z,6.6
2023-05-04T09:59:30.375Z,7.7
2023-05-04T10:04:31.002Z,7.0
2023-05-04T10:09:31.744Z,6.4
2023-05-04T10:14:32.153Z,6.1
2023-05-04T10:19:34.374Z,6.1
2023-05-04T10:24:33.563Z,4.8
2023-05-04T10:29:34.090Z,5.3
2023-05-04T10:34:34.859Z,5.6
2023-05-04T10:39:35.569Z,5.7
2023-05-04T10:44:36.060Z,6.5
2023-05-04T10:49:36.717Z,6.5
2023-05-04T10:54:37.417Z,3.7
2023-05-04T10:59:37.967Z,5.7
2023-05-04T11:04:38.639Z,5.8
2023-05-04T11:09:39.345Z,5.9
2023-05-04T11:14:39.885Z,5.2
2023-05-04T11:19:40.711Z,4.8
2023-05-04T11:24:41.221Z,6.2
2023-05-04T11:29:41.796Z,3.7
2023-05-04T11:34:43.089Z,5.0
2023-05-04T11:39:43.386Z,4.7
2023-05-04T11:44:43.703Z,3.5
2023-05-04T11:49:44.411Z,5.5
2023-05-04T11:54:45.123Z,3.8
2023-05-04T11:59:45.739Z,5.6
2023-05-04T12:04:46.404Z,3.2
2023-05-04T12:09:47.019Z,6.0
2023-05-04T12:14:48.744Z,5.3
2023-05-04T12:19:48.315Z,2.6
2023-05-04T12:24:48.924Z,4.7
2023-05-04T12:29:49.642Z,2.8
2023-05-04T12:34:50.234Z,2.7
2023-05-04T12:39:50.901Z,2.5
2023-05-04T12:44:51.593Z,4.0
2023-05-04T12:49:52.472Z,3.0
2023-05-04T12:54:52.978Z,3.6
2023-05-04T12:59:53.588Z,6.1
2023-05-04T13:04:54.284Z,4.6
2023-05-04T13:09:54.981Z,3.6
2023-05-04T13:14:55.578Z,5.4
2023-05-04T13:19:56.135Z,4.1
2023-05-04T13:24:56.929Z,4.9
2023-05-04T13:29:57.546Z,4.1
2023-05-04T13:34:58.251Z,3.3
2023-05-04T13:39:58.936Z,9.8
2023-05-04T13:45:00.942Z,2.8
2023-05-04T13:50:00.305Z,2.8
2023-05-04T13:55:00.961Z,3.7
2023-05-04T14:05:02.481Z,5.0
2023-05-04T14:10:03.193Z,4.8
2023-05-04T14:15:03.947Z,2.0
2023-05-04T14:20:04.600Z,3.2
2023-05-04T14:25:05.555Z,3.3
2023-05-04T14:30:05.938Z,3.5
2023-05-04T14:35:06.957Z,4.4
2023-05-04T14:40:07.996Z,2.7
2023-05-04T14:45:08.310Z,3.0
2023-05-04T14:50:08.893Z,3.8
2023-05-04T14:55:09.457Z,3.9
2023-05-04T15:00:10.330Z,2.4
2023-05-04T15:05:10.744Z,4.4
2023-05-04T15:10:11.618Z,2.8
2023-05-04T15:15:12.065Z,3.1
2023-05-04T15:20:12.741Z,6.4
2023-05-04T15:25:13.445Z,4.5
2023-05-04T15:30:14.006Z,3.6
2023-05-04T15:35:14.801Z,9.5
2023-05-04T15:40:15.861Z,6.3
2023-05-04T15:45:16.032Z,7.4
2023-05-04T15:50:16.745Z,4.4
2023-05-04T15:55:25.933Z,5.9
2023-05-04T16:00:18.015Z,3.7
2023-05-04T16:05:18.721Z,4.3
2023-05-04T16:10:19.409Z,7.8
2023-05-04T16:15:19.897Z,6.0
2023-05-04T16:20:20.609Z,6.7
2023-05-04T16:25:21.190Z,6.5
2023-05-04T16:30:21.838Z,6.7
2023-05-04T16:35:22.490Z,5.6
2023-05-04T16:40:23.664Z,6.9
2023-05-04T16:45:23.768Z,7.7
2023-05-04T16:50:24.456Z,7.3
2023-05-04T16:55:25.158Z,5.7
2023-05-04T17:00:25.791Z,4.5
2023-05-04T17:05:26.434Z,7.5
2023-05-04T17:10:27.129Z,5.8
2023-05-04T17:15:27.730Z,4.6
2023-05-04T17:20:28.357Z,8.4
2023-05-04T17:25:29.046Z,4.8
2023-05-04T17:30:29.703Z,7.1
2023-05-04T17:35:30.334Z,3.9
2023-05-04T17:40:30.969Z,5.5
2023-05-04T17:45:31.596Z,3.5
2023-05-04T17:50:32.132Z,2.8
2023-05-04T17:55:32.930Z,3.4
2023-05-04T18:00:33.451Z,5.3
2023-05-04T18:05:34.013Z,4.5
2023-05-04T18:10:34.812Z,4.3
2023-05-04T18:15:35.393Z,4.2
2023-05-04T18:20:35.962Z,5.0
2023-05-04T18:25:38.421Z,8.1
2023-05-04T18:28:08.308Z,8.1
2023-05-04T18:30:37.387Z,3.6
2023-05-04T18:35:37.941Z,5.4
2023-05-04T18:40:38.639Z,2.6
2023-05-04T18:45:39.192Z,4.4
2023-05-04T18:50:39.837Z,4.6
2023-05-04T18:55:40.510Z,5.6
2023-05-04T19:00:40.964Z,5.1
2023-05-04T19:05:41.684Z,4.6
2023-05-04T19:10:42.388Z,4.8
2023-05-04T19:15:43.110Z,5.0
2023-05-04T19:20:43.498Z,4.6
2023-05-04T19:25:44.114Z,5.3
2023-05-04T19:30:44.750Z,5.0
2023-05-04T19:35:45.349Z,5.0
2023-05-04T19:40:46.035Z,3.3
2023-05-04T19:45:46.498Z,4.2
2023-05-04T19:50:47.083Z,3.3
2023-05-04T19:55:47.782Z,6.0
2023-05-04T20:00:48.236Z,6.3
2023-05-04T20:05:48.779Z,4.6
2023-05-04T20:10:49.486Z,3.0
2023-05-04T20:15:49.895Z,5.0
2023-05-04T20:20:50.519Z,6.5
2023-05-04T20:25:50.996Z,4.5
2023-05-04T20:30:51.532Z,3.6
2023-05-04T20:35:52.069Z,4.5
2023-05-04T20:40:53.034Z,2.6
2023-05-04T20:45:53.208Z,4.5
2023-05-04T20:51:02.865Z,6.2
2023-05-04T20:55:54.424Z,3.7
2023-05-04T21:00:54.879Z,2.4
2023-05-04T21:05:55.457Z,13.7
2023-05-04T21:10:56.033Z,5.0
2023-05-04T21:15:56.601Z,4.9
2023-05-04T21:20:57.052Z,3.5
2023-05-04T21:25:57.719Z,6.1
2023-05-04T21:30:58.180Z,4.3
2023-05-04T21:35:58.692Z,6.7
2023-05-04T21:40:59.489Z,7.0
2023-05-04T21:45:59.692Z,3.8
2023-05-04T21:51:00.314Z,3.2
2023-05-04T21:56:00.782Z,7.1
2023-05-04T22:01:01.203Z,4.2
2023-05-04T22:06:01.829Z,5.1
2023-05-04T22:11:02.263Z,3.8
2023-05-04T22:16:02.852Z,2.7
2023-05-04T22:21:03.237Z,4.1
2023-05-04T22:26:03.815Z,2.6
2023-05-04T22:31:04.206Z,3.1
2023-05-04T22:36:04.715Z,5.5
2023-05-04T22:41:05.279Z,2.6
2023-05-04T22:46:05.732Z,4.7
2023-05-04T22:51:06.212Z,3.6
2023-05-04T22:56:06.888Z,1.5
2023-05-04T23:01:07.380Z,2.3
2023-05-04T23:06:07.840Z,2.4
2023-05-04T23:11:08.510Z,3.4
2023-05-04T23:16:09.154Z,3.9
2023-05-04T23:21:09.544Z,4.2
2023-05-04T23:26:10.060Z,4.7
2023-05-04T23:31:10.626Z,2.8
2023-05-04T23:36:11.064Z,2.7
2023-05-04T23:41:11.720Z,2.5
2023-05-04T23:46:12.147Z,3.9
2023-05-04T23:51:12.737Z,4.8
2023-05-04T23:56:13.276Z,3.6
